Terminal Aerodrome Forecast
Issued by NWS Raleigh/Durham, NC

Home | Current Version | Previous Version | Text Only | Print | Product List | Glossary On
Versions: 1 2 3 4 5 6 7 8 9 10 11 12 13 14 15 16 17 18 19 20 21 22 23 24 25 26 27 28 29 30 31 32 33 34 35 36 37 38 39 40 41 42 43 44 45 46 47 48
000
FTUS42 KRAH 010215 AAA
TAFGSO
TAF AMD
KGSO 010215Z 0102/0124 05004KT P6SM SCT120 BKN250
     FM010800 06006KT 6SM -FZRA BR OVC020
     FM011400 06006KT 5SM -FZRA BR OVC006 WS018/16038KT
     FM012100 06006KT 5SM -RA BR OVC006 WS018/19038KT=

USA.gov is the U.S. government's official web portal to all federal, state and local government web resources and services.